TimeMST,TemperatureF,Dew PointF,Humidity,Sea Level PressureIn,VisibilityMPH,Wind Direction,Wind SpeedMPH,Gust SpeedMPH,PrecipitationIn,Events,Conditions,WindDirDegrees,DateUTC
12:15 AM,32.0,8.6,38,30.04,10.0,SW,16.1,23.0,N/A,,Clear,230,2011-11-08 07:15:00
12:35 AM,32.0,8.6,38,30.04,10.0,SSW,10.4,17.3,N/A,,Clear,210,2011-11-08 07:35:00
12:55 AM,32.0,10.4,41,30.04,10.0,SSW,6.9,18.4,N/A,,Clear,210,2011-11-08 07:55:00
1:15 AM,30.2,10.4,44,30.04,10.0,SW,10.4,-,N/A,,Clear,230,2011-11-08 08:15:00
1:35 AM,32.0,10.4,41,30.04,10.0,SSW,13.8,18.4,N/A,,Clear,200,2011-11-08 08:35:00
1:55 AM,32.0,10.4,41,30.04,10.0,SW,10.4,24.2,N/A,,Clear,220,2011-11-08 08:55:00
2:15 AM,30.2,10.4,44,30.05,10.0,WNW,5.8,-,N/A,,Clear,300,2011-11-08 09:15:00
2:35 AM,30.2,8.6,40,30.05,10.0,WSW,3.5,-,N/A,,Clear,240,2011-11-08 09:35:00
2:55 AM,30.2,8.6,40,30.05,10.0,WSW,3.5,-,N/A,,Partly Cloudy,240,2011-11-08 09:55:00
3:35 AM,30.2,8.6,40,30.04,10.0,WSW,5.8,-,N/A,,Partly Cloudy,250,2011-11-08 10:35:00
3:55 AM,30.2,10.4,44,30.05,10.0,West,8.1,16.1,N/A,,Clear,280,2011-11-08 10:55:00
4:15 AM,32.0,8.6,38,30.05,10.0,West,5.8,-,N/A,,Partly Cloudy,270,2011-11-08 11:15:00
4:35 AM,33.8,10.4,38,30.05,10.0,SW,12.7,21.9,N/A,,Mostly Cloudy,230,2011-11-08 11:35:00
5:16 AM,33.8,10.4,38,30.06,10.0,SW,16.1,26.5,N/A,,Overcast,220,2011-11-08 12:16:00
5:35 AM,33.8,10.4,38,30.06,10.0,SW,12.7,23.0,N/A,,Mostly Cloudy,230,2011-11-08 12:35:00
5:55 AM,33.8,10.4,38,30.07,10.0,SW,12.7,21.9,N/A,,Partly Cloudy,230,2011-11-08 12:55:00
6:15 AM,33.8,10.4,38,30.07,10.0,SW,12.7,24.2,N/A,,Clear,230,2011-11-08 13:15:00
6:35 AM,33.8,10.4,38,30.08,10.0,SW,12.7,18.4,N/A,,Clear,230,2011-11-08 13:35:00
6:55 AM,33.8,10.4,38,30.08,10.0,SW,12.7,18.4,N/A,,Clear,220,2011-11-08 13:55:00
7:15 AM,32.0,10.4,41,30.09,10.0,West,6.9,18.4,N/A,,Clear,260,2011-11-08 14:15:00
7:35 AM,32.0,10.4,41,30.10,10.0,WSW,8.1,-,N/A,,Clear,240,2011-11-08 14:35:00
8:35 AM,33.8,10.4,38,30.12,10.0,SW,11.5,-,N/A,,Clear,220,2011-11-08 15:35:00
8:55 AM,35.6,10.4,35,30.12,10.0,WSW,11.5,16.1,N/A,,Clear,240,2011-11-08 15:55:00
9:15 AM,35.6,12.2,38,30.13,10.0,SSW,11.5,-,N/A,,Clear,210,2011-11-08 16:15:00
9:35 AM,35.6,12.2,38,30.13,10.0,WSW,11.5,-,N/A,,Clear,240,2011-11-08 16:35:00
9:55 AM,37.4,12.2,36,30.14,10.0,WSW,6.9,-,N/A,,Clear,240,2011-11-08 16:55:00
10:15 AM,37.4,12.2,36,30.14,10.0,SW,9.2,18.4,N/A,,Clear,220,2011-11-08 17:15:00
10:35 AM,37.4,12.2,36,30.14,10.0,SW,11.5,18.4,N/A,,Clear,220,2011-11-08 17:35:00
10:55 AM,37.4,12.2,36,30.15,10.0,WSW,9.2,18.4,N/A,,Scattered Clouds,240,2011-11-08 17:55:00
11:15 AM,39.2,12.2,33,30.15,10.0,SW,11.5,18.4,N/A,,Mostly Cloudy,220,2011-11-08 18:15:00
11:35 AM,39.2,12.2,33,30.14,10.0,SW,6.9,18.4,N/A,,Partly Cloudy,220,2011-11-08 18:35:00
11:55 AM,39.2,12.2,33,30.14,10.0,SSW,9.2,16.1,N/A,,Clear,210,2011-11-08 18:55:00
12:15 PM,39.2,12.2,33,30.14,10.0,WSW,8.1,-,N/A,,Mostly Cloudy,250,2011-11-08 19:15:00
12:35 PM,41.0,12.2,31,30.14,10.0,WNW,6.9,-,N/A,,Overcast,300,2011-11-08 19:35:00
1:16 PM,37.4,10.4,33,30.15,10.0,West,10.4,-,N/A,,Scattered Clouds,280,2011-11-08 20:16:00
1:35 PM,37.4,8.6,30,30.16,10.0,WNW,10.4,18.4,N/A,,Clear,290,2011-11-08 20:35:00
1:55 PM,39.2,10.4,31,30.16,10.0,West,6.9,16.1,N/A,,Clear,270,2011-11-08 20:55:00
2:15 PM,-9999,-9999,N/A,30.15,10.0,WNW,9.2,16.1,N/A,,Clear,290,2011-11-08 21:15:00
2:35 PM,-9999,-9999,N/A,30.16,10.0,SW,10.4,16.1,N/A,,Partly Cloudy,220,2011-11-08 21:35:00
3:15 PM,-9999,-9999,N/A,30.17,10.0,WSW,8.1,16.1,N/A,,Clear,240,2011-11-08 22:15:00
3:55 PM,37.4,10.4,33,30.19,10.0,WSW,9.2,19.6,N/A,,Clear,240,2011-11-08 22:55:00
4:15 PM,37.4,8.6,30,30.20,10.0,WSW,9.2,-,N/A,,Clear,240,2011-11-08 23:15:00
4:35 PM,35.6,10.4,35,30.21,10.0,West,6.9,-,N/A,,Clear,260,2011-11-08 23:35:00
4:55 PM,35.6,10.4,35,30.22,10.0,WSW,6.9,-,N/A,,Clear,250,2011-11-08 23:55:00
5:15 PM,35.6,10.4,35,30.23,10.0,WSW,9.2,-,N/A,,Clear,240,2011-11-09 00:15:00
5:35 PM,33.8,10.4,38,30.24,10.0,SW,11.5,20.7,N/A,,Clear,230,2011-11-09 00:35:00
5:55 PM,33.8,10.4,38,30.25,10.0,SSW,13.8,19.6,N/A,,Clear,210,2011-11-09 00:55:00
6:15 PM,33.8,10.4,38,30.25,10.0,SSW,11.5,20.7,N/A,,Clear,210,2011-11-09 01:15:00
6:35 PM,33.8,10.4,38,30.25,10.0,SW,13.8,23.0,N/A,,Clear,220,2011-11-09 01:35:00
6:55 PM,33.8,10.4,38,30.26,10.0,SSW,10.4,17.3,N/A,,Clear,200,2011-11-09 01:55:00
7:15 PM,33.8,10.4,38,30.26,10.0,SSW,11.5,19.6,N/A,,Clear,210,2011-11-09 02:15:00
7:55 PM,33.8,10.4,38,30.27,10.0,SW,11.5,23.0,N/A,,Clear,230,2011-11-09 02:55:00
8:15 PM,33.8,10.4,38,30.27,10.0,SW,16.1,21.9,N/A,,Clear,220,2011-11-09 03:15:00
8:35 PM,33.8,10.4,38,30.28,10.0,SW,12.7,21.9,N/A,,Clear,220,2011-11-09 03:35:00
8:55 PM,33.8,8.6,35,30.28,10.0,SW,13.8,21.9,N/A,,Clear,220,2011-11-09 03:55:00
9:15 PM,33.8,8.6,35,30.29,10.0,SW,11.5,21.9,N/A,,Clear,220,2011-11-09 04:15:00
9:35 PM,33.8,10.4,38,30.30,10.0,South,10.4,17.3,N/A,,Clear,180,2011-11-09 04:35:00
9:55 PM,30.2,10.4,44,30.30,10.0,SSW,6.9,16.1,N/A,,Clear,200,2011-11-09 04:55:00
10:35 PM,33.8,10.4,38,30.30,10.0,SSW,10.4,20.7,N/A,,Clear,210,2011-11-09 05:35:00
10:55 PM,33.8,8.6,35,30.31,10.0,SSW,12.7,17.3,N/A,,Clear,210,2011-11-09 05:55:00
11:15 PM,33.8,8.6,35,30.32,10.0,SW,10.4,16.1,N/A,,Clear,230,2011-11-09 06:15:00
11:35 PM,33.8,10.4,38,30.33,10.0,SW,11.5,23.0,N/A,,Clear,220,2011-11-09 06:35:00
11:55 PM,32.0,10.4,41,30.33,10.0,SW,11.5,19.6,N/A,,Clear,220,2011-11-09 06:55:00